sensor_id;sensor_type;location;lat;lon;timestamp;temperature;humidity
9907;DHT22;4992;51.628;6.664;2022-07-29T00:00:11;18.90;99.90
9907;DHT22;4992;51.628;6.664;2022-07-29T00:02:36;18.80;99.90
9907;DHT22;4992;51.628;6.664;2022-07-29T00:05:03;18.80;99.90
9907;DHT22;4992;51.628;6.664;2022-07-29T00:07:29;18.80;99.90
9907;DHT22;4992;51.628;6.664;2022-07-29T00:09:54;18.80;99.90
9907;DHT22;4992;51.628;6.664;2022-07-29T00:12:21;18.80;99.90
9907;DHT22;4992;51.628;6.664;2022-07-29T00:14:47;18.80;99.90
9907;DHT22;4992;51.628;6.664;2022-07-29T00:17:13;18.80;99.90
9907;DHT22;4992;51.628;6.664;2022-07-29T00:19:38;18.80;99.90
9907;DHT22;4992;51.628;6.664;2022-07-29T00:22:04;18.80;99.90
9907;DHT22;4992;51.628;6.664;2022-07-29T00:24:29;18.80;99.90
9907;DHT22;4992;51.628;6.664;2022-07-29T00:26:55;18.80;99.90
9907;DHT22;4992;51.628;6.664;2022-07-29T00:29:20;18.80;99.90
9907;DHT22;4992;51.628;6.664;2022-07-29T00:31:46;18.80;99.90
9907;DHT22;4992;51.628;6.664;2022-07-29T00:34:11;18.80;99.90
9907;DHT22;4992;51.628;6.664;2022-07-29T00:36:56;18.80;99.90
9907;DHT22;4992;51.628;6.664;2022-07-29T00:39:22;18.80;99.90
9907;DHT22;4992;51.628;6.664;2022-07-29T00:41:48;18.80;99.90
9907;DHT22;4992;51.628;6.664;2022-07-29T00:44:14;18.80;99.90
9907;DHT22;4992;51.628;6.664;2022-07-29T00:46:39;18.80;99.90
9907;DHT22;4992;51.628;6.664;2022-07-29T00:49:05;18.80;99.90
9907;DHT22;4992;51.628;6.664;2022-07-29T00:51:34;18.70;99.90
9907;DHT22;4992;51.628;6.664;2022-07-29T00:54:00;18.70;99.90
9907;DHT22;4992;51.628;6.664;2022-07-29T00:56:26;18.70;99.90
9907;DHT22;4992;51.628;6.664;2022-07-29T00:58:53;18.70;99.90
9907;DHT22;4992;51.628;6.664;2022-07-29T01:01:19;18.70;99.90
9907;DHT22;4992;51.628;6.664;2022-07-29T01:03:44;18.70;99.90
9907;DHT22;4992;51.628;6.664;2022-07-29T01:06:10;18.60;99.90
9907;DHT22;4992;51.628;6.664;2022-07-29T01:08:35;18.60;99.90
9907;DHT22;4992;51.628;6.664;2022-07-29T01:11:02;18.60;99.90
9907;DHT22;4992;51.628;6.664;2022-07-29T01:13:29;18.60;99.90
9907;DHT22;4992;51.628;6.664;2022-07-29T01:15:59;18.50;99.90
9907;DHT22;4992;51.628;6.664;2022-07-29T01:18:34;18.50;99.90
9907;DHT22;4992;51.628;6.664;2022-07-29T01:34:03;18.30;99.90
9907;DHT22;4992;51.628;6.664;2022-07-29T01:36:36;18.30;99.90
9907;DHT22;4992;51.628;6.664;2022-07-29T01:39:19;18.30;99.90
9907;DHT22;4992;51.628;6.664;2022-07-29T01:41:55;18.20;99.90
9907;DHT22;4992;51.628;6.664;2022-07-29T01:44:34;18.20;99.90
9907;DHT22;4992;51.628;6.664;2022-07-29T01:47:08;18.10;99.90
9907;DHT22;4992;51.628;6.664;2022-07-29T01:49:36;18.20;99.90
9907;DHT22;4992;51.628;6.664;2022-07-29T01:52:09;18.10;99.90
9907;DHT22;4992;51.628;6.664;2022-07-29T01:54:42;18.10;99.90
9907;DHT22;4992;51.628;6.664;2022-07-29T01:57:11;18.10;99.90
9907;DHT22;4992;51.628;6.664;2022-07-29T01:59:38;18.00;99.90
9907;DHT22;4992;51.628;6.664;2022-07-29T02:02:06;18.00;99.90
9907;DHT22;4992;51.628;6.664;2022-07-29T02:04:36;18.00;99.90
9907;DHT22;4992;51.628;6.664;2022-07-29T02:07:04;18.00;99.90
9907;DHT22;4992;51.628;6.664;2022-07-29T02:09:32;18.00;99.90
9907;DHT22;4992;51.628;6.664;2022-07-29T02:11:59;18.00;99.90
9907;DHT22;4992;51.628;6.664;2022-07-29T02:14:29;17.90;99.90
9907;DHT22;4992;51.628;6.664;2022-07-29T02:16:59;17.90;99.90
9907;DHT22;4992;51.628;6.664;2022-07-29T02:19:27;17.90;99.90
9907;DHT22;4992;51.628;6.664;2022-07-29T02:21:55;17.90;99.90
9907;DHT22;4992;51.628;6.664;2022-07-29T02:24:23;17.90;99.90
9907;DHT22;4992;51.628;6.664;2022-07-29T02:26:52;17.90;99.90
9907;DHT22;4992;51.628;6.664;2022-07-29T02:29:21;17.80;99.90
9907;DHT22;4992;51.628;6.664;2022-07-29T02:31:49;17.80;99.90
9907;DHT22;4992;51.628;6.664;2022-07-29T02:34:15;17.80;99.90
9907;DHT22;4992;51.628;6.664;2022-07-29T02:36:43;17.80;99.90
9907;DHT22;4992;51.628;6.664;2022-07-29T02:39:09;17.80;99.90
9907;DHT22;4992;51.628;6.664;2022-07-29T02:41:45;17.70;99.90
9907;DHT22;4992;51.628;6.664;2022-07-29T02:44:17;17.70;99.90
9907;DHT22;4992;51.628;6.664;2022-07-29T02:47:02;17.70;99.90
9907;DHT22;4992;51.628;6.664;2022-07-29T02:49:38;17.70;99.90
9907;DHT22;4992;51.628;6.664;2022-07-29T02:52:11;17.70;99.90
9907;DHT22;4992;51.628;6.664;2022-07-29T02:54:42;17.70;99.90
9907;DHT22;4992;51.628;6.664;2022-07-29T02:57:17;17.70;99.90
9907;DHT22;4992;51.628;6.664;2022-07-29T02:59:45;17.70;99.90
9907;DHT22;4992;51.628;6.664;2022-07-29T03:02:14;17.80;99.90
9907;DHT22;4992;51.628;6.664;2022-07-29T03:04:41;17.70;99.90
9907;DHT22;4992;51.628;6.664;2022-07-29T03:07:08;17.60;99.90
9907;DHT22;4992;51.628;6.664;2022-07-29T03:09:36;17.40;99.90
9907;DHT22;4992;51.628;6.664;2022-07-29T03:12:02;17.20;99.90
9907;DHT22;4992;51.628;6.664;2022-07-29T03:14:29;17.00;99.90
9907;DHT22;4992;51.628;6.664;2022-07-29T03:16:55;16.80;99.90
9907;DHT22;4992;51.628;6.664;2022-07-29T03:19:21;16.70;99.90
9907;DHT22;4992;51.628;6.664;2022-07-29T03:21:47;16.60;99.90
9907;DHT22;4992;51.628;6.664;2022-07-29T03:24:30;16.50;99.90
9907;DHT22;4992;51.628;6.664;2022-07-29T03:26:56;16.40;99.90
9907;DHT22;4992;51.628;6.664;2022-07-29T03:29:23;16.30;99.90
9907;DHT22;4992;51.628;6.664;2022-07-29T03:31:49;16.20;99.90
9907;DHT22;4992;51.628;6.664;2022-07-29T03:34:14;16.20;99.90
9907;DHT22;4992;51.628;6.664;2022-07-29T03:36:40;16.10;99.90
9907;DHT22;4992;51.628;6.664;2022-07-29T03:39:06;16.00;99.90
9907;DHT22;4992;51.628;6.664;2022-07-29T03:41:33;16.00;99.90
9907;DHT22;4992;51.628;6.664;2022-07-29T03:44:00;16.00;99.90
9907;DHT22;4992;51.628;6.664;2022-07-29T03:46:28;16.00;99.90
9907;DHT22;4992;51.628;6.664;2022-07-29T03:49:01;16.00;99.90
9907;DHT22;4992;51.628;6.664;2022-07-29T03:51:28;15.90;99.90
9907;DHT22;4992;51.628;6.664;2022-07-29T03:53:54;15.90;99.90
9907;DHT22;4992;51.628;6.664;2022-07-29T03:56:21;15.90;99.90
9907;DHT22;4992;51.628;6.664;2022-07-29T03:58:50;15.80;99.90
9907;DHT22;4992;51.628;6.664;2022-07-29T04:01:17;15.80;99.90
9907;DHT22;4992;51.628;6.664;2022-07-29T04:03:44;15.80;99.90
9907;DHT22;4992;51.628;6.664;2022-07-29T04:06:13;15.80;99.90
9907;DHT22;4992;51.628;6.664;2022-07-29T04:08:38;15.80;99.90
9907;DHT22;4992;51.628;6.664;2022-07-29T04:11:04;15.80;99.90
9907;DHT22;4992;51.628;6.664;2022-07-29T04:13:31;15.70;99.90
9907;DHT22;4992;51.628;6.664;2022-07-29T04:15:57;15.70;99.90
9907;DHT22;4992;51.628;6.664;2022-07-29T04:18:23;15.70;99.90
9907;DHT22;4992;51.628;6.664;2022-07-29T04:20:49;15.60;99.90
9907;DHT22;4992;51.628;6.664;2022-07-29T04:23:14;15.60;99.90
9907;DHT22;4992;51.628;6.664;2022-07-29T04:25:41;15.60;99.90
9907;DHT22;4992;51.628;6.664;2022-07-29T04:28:08;15.50;99.90
9907;DHT22;4992;51.628;6.664;2022-07-29T04:30:35;15.50;99.90
9907;DHT22;4992;51.628;6.664;2022-07-29T04:33:03;15.40;99.90
9907;DHT22;4992;51.628;6.664;2022-07-29T04:35:34;15.40;99.90
9907;DHT22;4992;51.628;6.664;2022-07-29T04:38:00;15.40;99.90
9907;DHT22;4992;51.628;6.664;2022-07-29T04:40:26;15.40;99.90
9907;DHT22;4992;51.628;6.664;2022-07-29T04:42:52;15.40;99.90
9907;DHT22;4992;51.628;6.664;2022-07-29T04:45:18;15.40;99.90
9907;DHT22;4992;51.628;6.664;2022-07-29T04:47:43;15.40;99.90
9907;DHT22;4992;51.628;6.664;2022-07-29T04:50:10;15.40;99.90
9907;DHT22;4992;51.628;6.664;2022-07-29T04:52:35;15.40;99.90
9907;DHT22;4992;51.628;6.664;2022-07-29T04:55:01;15.40;99.90
9907;DHT22;4992;51.628;6.664;2022-07-29T04:57:27;15.40;99.90
9907;DHT22;4992;51.628;6.664;2022-07-29T04:59:53;15.40;99.90
9907;DHT22;4992;51.628;6.664;2022-07-29T05:02:18;15.40;99.90
9907;DHT22;4992;51.628;6.664;2022-07-29T05:04:44;15.40;99.90
9907;DHT22;4992;51.628;6.664;2022-07-29T05:07:09;15.30;99.90
9907;DHT22;4992;51.628;6.664;2022-07-29T05:09:35;15.30;99.90
9907;DHT22;4992;51.628;6.664;2022-07-29T05:12:00;15.30;99.90
9907;DHT22;4992;51.628;6.664;2022-07-29T05:14:26;15.30;99.90
9907;DHT22;4992;51.628;6.664;2022-07-29T05:16:51;15.30;99.90
9907;DHT22;4992;51.628;6.664;2022-07-29T05:19:18;15.30;99.90
9907;DHT22;4992;51.628;6.664;2022-07-29T05:21:44;15.30;99.90
9907;DHT22;4992;51.628;6.664;2022-07-29T05:24:10;15.20;99.90
9907;DHT22;4992;51.628;6.664;2022-07-29T05:26:36;15.10;99.90
9907;DHT22;4992;51.628;6.664;2022-07-29T05:29:02;15.10;99.90
9907;DHT22;4992;51.628;6.664;2022-07-29T05:31:28;15.00;99.90
9907;DHT22;4992;51.628;6.664;2022-07-29T05:33:53;15.00;99.90
9907;DHT22;4992;51.628;6.664;2022-07-29T05:36:19;14.90;99.90
9907;DHT22;4992;51.628;6.664;2022-07-29T05:38:44;14.90;99.90
9907;DHT22;4992;51.628;6.664;2022-07-29T05:41:10;14.90;99.90
9907;DHT22;4992;51.628;6.664;2022-07-29T05:43:36;14.90;99.90
9907;DHT22;4992;51.628;6.664;2022-07-29T05:46:01;14.90;99.90
9907;DHT22;4992;51.628;6.664;2022-07-29T05:48:27;14.90;99.90
9907;DHT22;4992;51.628;6.664;2022-07-29T05:50:52;14.90;99.90
9907;DHT22;4992;51.628;6.664;2022-07-29T05:53:18;14.90;99.90
9907;DHT22;4992;51.628;6.664;2022-07-29T05:55:44;14.90;99.90
9907;DHT22;4992;51.628;6.664;2022-07-29T05:58:09;14.80;99.90
9907;DHT22;4992;51.628;6.664;2022-07-29T06:00:35;14.80;99.90
9907;DHT22;4992;51.628;6.664;2022-07-29T06:03:00;14.80;99.90
9907;DHT22;4992;51.628;6.664;2022-07-29T06:05:26;14.80;99.90
9907;DHT22;4992;51.628;6.664;2022-07-29T06:07:51;14.90;99.90
9907;DHT22;4992;51.628;6.664;2022-07-29T06:10:17;14.90;99.90
9907;DHT22;4992;51.628;6.664;2022-07-29T06:12:44;14.90;99.90
9907;DHT22;4992;51.628;6.664;2022-07-29T06:15:09;14.90;99.90
9907;DHT22;4992;51.628;6.664;2022-07-29T06:17:35;14.90;99.90
9907;DHT22;4992;51.628;6.664;2022-07-29T06:20:01;14.90;99.90
9907;DHT22;4992;51.628;6.664;2022-07-29T06:22:28;14.90;99.90
9907;DHT22;4992;51.628;6.664;2022-07-29T06:24:54;14.90;99.90
9907;DHT22;4992;51.628;6.664;2022-07-29T06:27:19;14.90;99.90
9907;DHT22;4992;51.628;6.664;2022-07-29T06:29:45;14.90;99.90
9907;DHT22;4992;51.628;6.664;2022-07-29T06:32:10;14.90;99.90
9907;DHT22;4992;51.628;6.664;2022-07-29T06:34:36;14.80;99.90
9907;DHT22;4992;51.628;6.664;2022-07-29T06:37:10;14.90;99.90
9907;DHT22;4992;51.628;6.664;2022-07-29T06:39:36;14.90;99.90
9907;DHT22;4992;51.628;6.664;2022-07-29T06:42:03;14.90;99.90
9907;DHT22;4992;51.628;6.664;2022-07-29T06:44:29;14.90;99.90
9907;DHT22;4992;51.628;6.664;2022-07-29T06:46:55;15.00;99.90
9907;DHT22;4992;51.628;6.664;2022-07-29T06:49:21;15.00;99.90
9907;DHT22;4992;51.628;6.664;2022-07-29T06:51:46;15.10;99.90
9907;DHT22;4992;51.628;6.664;2022-07-29T06:54:12;15.10;99.90
9907;DHT22;4992;51.628;6.664;2022-07-29T06:56:37;15.20;99.90
9907;DHT22;4992;51.628;6.664;2022-07-29T06:59:04;15.20;99.90
9907;DHT22;4992;51.628;6.664;2022-07-29T07:01:30;15.20;99.90
9907;DHT22;4992;51.628;6.664;2022-07-29T07:03:55;15.10;99.90
9907;DHT22;4992;51.628;6.664;2022-07-29T07:06:21;15.10;99.90
9907;DHT22;4992;51.628;6.664;2022-07-29T07:08:47;15.20;99.90
9907;DHT22;4992;51.628;6.664;2022-07-29T07:11:18;15.20;99.90
9907;DHT22;4992;51.628;6.664;2022-07-29T07:13:43;15.20;99.90
9907;DHT22;4992;51.628;6.664;2022-07-29T07:16:12;15.20;99.90
9907;DHT22;4992;51.628;6.664;2022-07-29T07:18:37;15.20;99.90
9907;DHT22;4992;51.628;6.664;2022-07-29T07:21:03;15.20;99.90
9907;DHT22;4992;51.628;6.664;2022-07-29T07:23:30;15.20;99.90
9907;DHT22;4992;51.628;6.664;2022-07-29T07:25:55;15.20;99.90
9907;DHT22;4992;51.628;6.664;2022-07-29T07:28:21;15.20;99.90
9907;DHT22;4992;51.628;6.664;2022-07-29T07:30:46;15.10;99.90
9907;DHT22;4992;51.628;6.664;2022-07-29T07:33:12;15.10;99.90
9907;DHT22;4992;51.628;6.664;2022-07-29T07:35:38;15.00;99.90
9907;DHT22;4992;51.628;6.664;2022-07-29T07:38:03;15.00;99.90
9907;DHT22;4992;51.628;6.664;2022-07-29T07:40:31;15.00;99.90
9907;DHT22;4992;51.628;6.664;2022-07-29T07:42:57;14.90;99.90
9907;DHT22;4992;51.628;6.664;2022-07-29T07:45:22;14.90;99.90
9907;DHT22;4992;51.628;6.664;2022-07-29T07:47:48;14.90;99.90
9907;DHT22;4992;51.628;6.664;2022-07-29T07:50:13;14.90;99.90
9907;DHT22;4992;51.628;6.664;2022-07-29T07:52:50;14.90;99.90
9907;DHT22;4992;51.628;6.664;2022-07-29T07:55:16;14.80;99.90
9907;DHT22;4992;51.628;6.664;2022-07-29T07:57:42;14.80;99.90
9907;DHT22;4992;51.628;6.664;2022-07-29T08:00:08;14.80;99.90
9907;DHT22;4992;51.628;6.664;2022-07-29T08:02:34;14.90;99.90
9907;DHT22;4992;51.628;6.664;2022-07-29T08:04:59;14.80;99.90
9907;DHT22;4992;51.628;6.664;2022-07-29T08:07:25;14.90;99.90
9907;DHT22;4992;51.628;6.664;2022-07-29T08:09:50;14.90;99.90
9907;DHT22;4992;51.628;6.664;2022-07-29T08:12:16;14.90;99.90
9907;DHT22;4992;51.628;6.664;2022-07-29T08:14:41;14.90;99.90
9907;DHT22;4992;51.628;6.664;2022-07-29T08:17:07;14.90;99.90
9907;DHT22;4992;51.628;6.664;2022-07-29T08:19:32;15.00;99.90
9907;DHT22;4992;51.628;6.664;2022-07-29T08:21:58;15.00;99.90
9907;DHT22;4992;51.628;6.664;2022-07-29T08:24:23;15.00;99.90
9907;DHT22;4992;51.628;6.664;2022-07-29T08:27:11;15.00;99.90
9907;DHT22;4992;51.628;6.664;2022-07-29T08:29:37;15.10;99.90
9907;DHT22;4992;51.628;6.664;2022-07-29T08:32:03;15.10;99.90
9907;DHT22;4992;51.628;6.664;2022-07-29T08:34:29;15.10;99.90
9907;DHT22;4992;51.628;6.664;2022-07-29T08:36:55;15.10;99.90
9907;DHT22;4992;51.628;6.664;2022-07-29T08:39:22;15.10;99.90
9907;DHT22;4992;51.628;6.664;2022-07-29T08:41:48;15.20;99.90
9907;DHT22;4992;51.628;6.664;2022-07-29T08:44:16;15.20;99.90
9907;DHT22;4992;51.628;6.664;2022-07-29T08:46:43;15.20;99.90
9907;DHT22;4992;51.628;6.664;2022-07-29T08:49:08;15.30;99.90
9907;DHT22;4992;51.628;6.664;2022-07-29T08:51:36;15.30;99.90
9907;DHT22;4992;51.628;6.664;2022-07-29T08:54:02;15.30;99.90
9907;DHT22;4992;51.628;6.664;2022-07-29T08:56:29;15.30;99.90
9907;DHT22;4992;51.628;6.664;2022-07-29T08:58:58;15.30;99.90
9907;DHT22;4992;51.628;6.664;2022-07-29T09:01:25;15.30;99.90
9907;DHT22;4992;51.628;6.664;2022-07-29T09:03:55;15.30;99.90
9907;DHT22;4992;51.628;6.664;2022-07-29T09:06:21;15.30;99.90
9907;DHT22;4992;51.628;6.664;2022-07-29T09:08:47;15.40;99.90
9907;DHT22;4992;51.628;6.664;2022-07-29T09:11:13;15.40;99.90
9907;DHT22;4992;51.628;6.664;2022-07-29T09:13:39;15.40;99.90
9907;DHT22;4992;51.628;6.664;2022-07-29T09:16:05;15.50;99.90
9907;DHT22;4992;51.628;6.664;2022-07-29T09:18:38;15.50;99.90
9907;DHT22;4992;51.628;6.664;2022-07-29T09:21:06;15.50;99.90
9907;DHT22;4992;51.628;6.664;2022-07-29T09:26:39;15.70;99.90
9907;DHT22;4992;51.628;6.664;2022-07-29T09:29:15;15.80;99.90
9907;DHT22;4992;51.628;6.664;2022-07-29T09:31:47;15.90;99.90
9907;DHT22;4992;51.628;6.664;2022-07-29T09:34:25;16.00;99.90
9907;DHT22;4992;51.628;6.664;2022-07-29T09:36:52;16.10;99.90
9907;DHT22;4992;51.628;6.664;2022-07-29T09:39:31;16.30;99.90
9907;DHT22;4992;51.628;6.664;2022-07-29T09:41:59;16.50;99.90
9907;DHT22;4992;51.628;6.664;2022-07-29T09:44:25;16.60;99.90
9907;DHT22;4992;51.628;6.664;2022-07-29T09:46:58;16.80;99.90
9907;DHT22;4992;51.628;6.664;2022-07-29T09:49:25;16.90;99.90
9907;DHT22;4992;51.628;6.664;2022-07-29T09:52:05;17.10;99.90
9907;DHT22;4992;51.628;6.664;2022-07-29T09:54:31;17.20;99.90
9907;DHT22;4992;51.628;6.664;2022-07-29T09:57:08;17.20;99.90
9907;DHT22;4992;51.628;6.664;2022-07-29T09:59:38;17.20;99.90
9907;DHT22;4992;51.628;6.664;2022-07-29T10:02:12;17.30;99.90
9907;DHT22;4992;51.628;6.664;2022-07-29T10:04:39;17.40;99.90
9907;DHT22;4992;51.628;6.664;2022-07-29T10:07:05;17.60;99.90
9907;DHT22;4992;51.628;6.664;2022-07-29T10:09:32;17.70;99.90
9907;DHT22;4992;51.628;6.664;2022-07-29T10:12:12;17.90;99.90
9907;DHT22;4992;51.628;6.664;2022-07-29T10:14:41;18.40;99.90
9907;DHT22;4992;51.628;6.664;2022-07-29T10:17:09;18.90;99.90
9907;DHT22;4992;51.628;6.664;2022-07-29T10:19:37;19.40;99.90
9907;DHT22;4992;51.628;6.664;2022-07-29T10:22:09;19.80;99.90
9907;DHT22;4992;51.628;6.664;2022-07-29T10:24:35;20.00;99.90
9907;DHT22;4992;51.628;6.664;2022-07-29T10:27:05;20.10;99.90
9907;DHT22;4992;51.628;6.664;2022-07-29T10:29:30;20.10;99.90
9907;DHT22;4992;51.628;6.664;2022-07-29T10:44:18;20.00;99.90
9907;DHT22;4992;51.628;6.664;2022-07-29T10:46:45;19.90;99.90
9907;DHT22;4992;51.628;6.664;2022-07-29T10:49:14;20.00;99.90
9907;DHT22;4992;51.628;6.664;2022-07-29T10:52:00;20.40;99.90
9907;DHT22;4992;51.628;6.664;2022-07-29T10:54:43;21.20;99.90
9907;DHT22;4992;51.628;6.664;2022-07-29T10:57:19;21.70;99.90
9907;DHT22;4992;51.628;6.664;2022-07-29T11:05:03;21.10;99.90
9907;DHT22;4992;51.628;6.664;2022-07-29T11:07:29;21.10;99.90
9907;DHT22;4992;51.628;6.664;2022-07-29T11:15:10;22.20;99.90
9907;DHT22;4992;51.628;6.664;2022-07-29T11:20:43;23.90;99.90
9907;DHT22;4992;51.628;6.664;2022-07-29T11:23:32;24.60;99.90
9907;DHT22;4992;51.628;6.664;2022-07-29T11:28:37;26.30;99.90
9907;DHT22;4992;51.628;6.664;2022-07-29T11:31:05;27.00;99.90
9907;DHT22;4992;51.628;6.664;2022-07-29T11:33:33;27.60;99.90
9907;DHT22;4992;51.628;6.664;2022-07-29T11:38:35;28.10;99.90
9907;DHT22;4992;51.628;6.664;2022-07-29T11:41:20;28.10;99.90
9907;DHT22;4992;51.628;6.664;2022-07-29T11:49:03;27.00;99.90
9907;DHT22;4992;51.628;6.664;2022-07-29T11:51:30;26.50;99.90
9907;DHT22;4992;51.628;6.664;2022-07-29T11:53:57;26.30;99.90
9907;DHT22;4992;51.628;6.664;2022-07-29T11:56:23;26.20;99.90
9907;DHT22;4992;51.628;6.664;2022-07-29T11:59:00;26.10;99.90
9907;DHT22;4992;51.628;6.664;2022-07-29T12:01:26;26.00;99.90
9907;DHT22;4992;51.628;6.664;2022-07-29T12:04:02;25.80;99.90
9907;DHT22;4992;51.628;6.664;2022-07-29T12:06:28;25.60;99.90
9907;DHT22;4992;51.628;6.664;2022-07-29T12:08:53;25.40;99.90
9907;DHT22;4992;51.628;6.664;2022-07-29T12:11:20;25.10;99.90
9907;DHT22;4992;51.628;6.664;2022-07-29T12:13:46;24.80;99.90
9907;DHT22;4992;51.628;6.664;2022-07-29T12:16:11;24.40;99.90
9907;DHT22;4992;51.628;6.664;2022-07-29T12:18:37;24.20;99.90
9907;DHT22;4992;51.628;6.664;2022-07-29T12:21:02;24.10;99.90
9907;DHT22;4992;51.628;6.664;2022-07-29T12:23:32;24.00;99.90
9907;DHT22;4992;51.628;6.664;2022-07-29T12:25:58;23.80;99.90
9907;DHT22;4992;51.628;6.664;2022-07-29T12:28:24;23.70;99.90
9907;DHT22;4992;51.628;6.664;2022-07-29T12:30:50;23.50;99.90
9907;DHT22;4992;51.628;6.664;2022-07-29T12:33:18;23.30;99.90
9907;DHT22;4992;51.628;6.664;2022-07-29T12:35:47;23.20;99.90
9907;DHT22;4992;51.628;6.664;2022-07-29T12:38:14;23.10;99.90
9907;DHT22;4992;51.628;6.664;2022-07-29T12:40:40;23.10;99.90
9907;DHT22;4992;51.628;6.664;2022-07-29T12:43:22;23.00;99.90
9907;DHT22;4992;51.628;6.664;2022-07-29T12:45:57;22.90;99.90
9907;DHT22;4992;51.628;6.664;2022-07-29T12:48:38;22.90;99.90
9907;DHT22;4992;51.628;6.664;2022-07-29T12:51:05;22.80;99.90
9907;DHT22;4992;51.628;6.664;2022-07-29T12:53:32;22.70;99.90
9907;DHT22;4992;51.628;6.664;2022-07-29T12:55:58;22.70;99.90
9907;DHT22;4992;51.628;6.664;2022-07-29T12:58:35;22.60;99.90
9907;DHT22;4992;51.628;6.664;2022-07-29T13:01:09;22.60;99.90
9907;DHT22;4992;51.628;6.664;2022-07-29T13:06:04;22.50;99.90
9907;DHT22;4992;51.628;6.664;2022-07-29T13:08:30;22.50;99.90
9907;DHT22;4992;51.628;6.664;2022-07-29T13:10:55;22.60;99.90
9907;DHT22;4992;51.628;6.664;2022-07-29T13:13:21;22.60;99.90
9907;DHT22;4992;51.628;6.664;2022-07-29T13:15:46;22.60;99.90
9907;DHT22;4992;51.628;6.664;2022-07-29T13:18:32;22.70;99.90
9907;DHT22;4992;51.628;6.664;2022-07-29T13:21:10;22.70;99.90
9907;DHT22;4992;51.628;6.664;2022-07-29T13:23:37;22.80;99.90
9907;DHT22;4992;51.628;6.664;2022-07-29T13:26:06;23.00;99.90
9907;DHT22;4992;51.628;6.664;2022-07-29T13:28:33;23.30;99.90
9907;DHT22;4992;51.628;6.664;2022-07-29T13:30:59;23.50;99.90
9907;DHT22;4992;51.628;6.664;2022-07-29T13:33:25;23.70;99.90
9907;DHT22;4992;51.628;6.664;2022-07-29T13:35:50;23.70;99.90
9907;DHT22;4992;51.628;6.664;2022-07-29T13:38:16;23.80;99.90
9907;DHT22;4992;51.628;6.664;2022-07-29T13:40:42;23.80;99.90
9907;DHT22;4992;51.628;6.664;2022-07-29T13:43:11;23.80;99.90
9907;DHT22;4992;51.628;6.664;2022-07-29T13:45:37;23.80;99.90
9907;DHT22;4992;51.628;6.664;2022-07-29T13:48:03;23.80;99.90
9907;DHT22;4992;51.628;6.664;2022-07-29T13:50:28;23.80;99.90
9907;DHT22;4992;51.628;6.664;2022-07-29T13:52:54;23.90;99.90
9907;DHT22;4992;51.628;6.664;2022-07-29T13:55:20;24.00;99.90
9907;DHT22;4992;51.628;6.664;2022-07-29T13:57:45;24.20;99.90
9907;DHT22;4992;51.628;6.664;2022-07-29T14:00:12;24.40;99.90
9907;DHT22;4992;51.628;6.664;2022-07-29T14:02:38;24.90;99.90
9907;DHT22;4992;51.628;6.664;2022-07-29T14:05:05;25.70;99.90
9907;DHT22;4992;51.628;6.664;2022-07-29T14:07:31;26.50;99.90
9907;DHT22;4992;51.628;6.664;2022-07-29T14:09:57;26.90;99.90
9907;DHT22;4992;51.628;6.664;2022-07-29T14:12:22;27.00;99.90
9907;DHT22;4992;51.628;6.664;2022-07-29T14:14:48;26.90;99.90
9907;DHT22;4992;51.628;6.664;2022-07-29T14:17:14;26.90;99.90
9907;DHT22;4992;51.628;6.664;2022-07-29T14:19:40;27.10;99.90
9907;DHT22;4992;51.628;6.664;2022-07-29T14:22:08;27.50;99.90
9907;DHT22;4992;51.628;6.664;2022-07-29T14:24:34;27.60;99.90
9907;DHT22;4992;51.628;6.664;2022-07-29T14:26:59;27.60;99.90
9907;DHT22;4992;51.628;6.664;2022-07-29T14:29:25;27.60;99.90
9907;DHT22;4992;51.628;6.664;2022-07-29T14:31:51;27.50;99.90
9907;DHT22;4992;51.628;6.664;2022-07-29T14:34:16;27.50;99.90
9907;DHT22;4992;51.628;6.664;2022-07-29T14:36:42;27.30;99.90
9907;DHT22;4992;51.628;6.664;2022-07-29T14:39:07;27.10;99.90
9907;DHT22;4992;51.628;6.664;2022-07-29T14:41:33;26.90;99.90
9907;DHT22;4992;51.628;6.664;2022-07-29T14:43:59;26.60;99.90
9907;DHT22;4992;51.628;6.664;2022-07-29T14:46:27;26.50;99.90
9907;DHT22;4992;51.628;6.664;2022-07-29T14:48:53;26.40;99.90
9907;DHT22;4992;51.628;6.664;2022-07-29T14:51:19;26.40;99.90
9907;DHT22;4992;51.628;6.664;2022-07-29T14:53:44;26.50;99.90
9907;DHT22;4992;51.628;6.664;2022-07-29T14:56:10;26.50;99.90
9907;DHT22;4992;51.628;6.664;2022-07-29T14:58:36;26.50;99.90
9907;DHT22;4992;51.628;6.664;2022-07-29T15:01:01;26.80;99.90
9907;DHT22;4992;51.628;6.664;2022-07-29T15:03:27;27.40;99.90
9907;DHT22;4992;51.628;6.664;2022-07-29T15:05:53;27.90;99.90
9907;DHT22;4992;51.628;6.664;2022-07-29T15:08:19;28.40;99.90
9907;DHT22;4992;51.628;6.664;2022-07-29T15:10:45;28.30;99.90
9907;DHT22;4992;51.628;6.664;2022-07-29T15:13:10;28.00;99.90
9907;DHT22;4992;51.628;6.664;2022-07-29T15:15:36;27.70;99.90
9907;DHT22;4992;51.628;6.664;2022-07-29T15:18:02;27.50;99.90
9907;DHT22;4992;51.628;6.664;2022-07-29T15:20:27;27.40;99.90
9907;DHT22;4992;51.628;6.664;2022-07-29T15:22:54;27.30;99.90
9907;DHT22;4992;51.628;6.664;2022-07-29T15:25:21;27.20;99.90
9907;DHT22;4992;51.628;6.664;2022-07-29T15:27:47;27.20;99.90
9907;DHT22;4992;51.628;6.664;2022-07-29T15:30:12;27.10;99.90
9907;DHT22;4992;51.628;6.664;2022-07-29T15:32:38;26.90;99.90
9907;DHT22;4992;51.628;6.664;2022-07-29T15:35:03;26.80;99.90
9907;DHT22;4992;51.628;6.664;2022-07-29T15:37:29;26.50;99.90
9907;DHT22;4992;51.628;6.664;2022-07-29T15:39:55;26.40;99.90
9907;DHT22;4992;51.628;6.664;2022-07-29T15:42:21;26.20;99.90
9907;DHT22;4992;51.628;6.664;2022-07-29T15:44:46;26.10;99.90
9907;DHT22;4992;51.628;6.664;2022-07-29T15:47:11;26.00;99.90
9907;DHT22;4992;51.628;6.664;2022-07-29T15:49:39;25.90;99.90
9907;DHT22;4992;51.628;6.664;2022-07-29T15:52:07;25.90;99.90
9907;DHT22;4992;51.628;6.664;2022-07-29T15:54:35;25.80;99.90
9907;DHT22;4992;51.628;6.664;2022-07-29T15:57:02;25.80;99.90
9907;DHT22;4992;51.628;6.664;2022-07-29T15:59:28;25.70;99.90
9907;DHT22;4992;51.628;6.664;2022-07-29T16:01:54;25.60;99.90
9907;DHT22;4992;51.628;6.664;2022-07-29T16:04:19;25.50;99.90
9907;DHT22;4992;51.628;6.664;2022-07-29T16:06:46;25.50;99.90
9907;DHT22;4992;51.628;6.664;2022-07-29T16:09:12;25.50;99.90
9907;DHT22;4992;51.628;6.664;2022-07-29T16:11:38;25.40;99.90
9907;DHT22;4992;51.628;6.664;2022-07-29T16:14:04;25.30;99.90
9907;DHT22;4992;51.628;6.664;2022-07-29T16:16:30;25.30;99.90
9907;DHT22;4992;51.628;6.664;2022-07-29T16:18:56;25.20;99.90
9907;DHT22;4992;51.628;6.664;2022-07-29T16:21:21;25.10;99.90
9907;DHT22;4992;51.628;6.664;2022-07-29T16:23:47;25.10;99.90
9907;DHT22;4992;51.628;6.664;2022-07-29T16:26:13;25.00;99.90
9907;DHT22;4992;51.628;6.664;2022-07-29T16:28:39;25.00;99.90
9907;DHT22;4992;51.628;6.664;2022-07-29T16:31:04;24.90;99.90
9907;DHT22;4992;51.628;6.664;2022-07-29T16:33:30;24.90;99.90
9907;DHT22;4992;51.628;6.664;2022-07-29T16:35:56;24.90;99.90
9907;DHT22;4992;51.628;6.664;2022-07-29T16:38:21;24.90;99.90
9907;DHT22;4992;51.628;6.664;2022-07-29T16:40:47;24.80;99.90
9907;DHT22;4992;51.628;6.664;2022-07-29T16:43:13;24.70;99.90
9907;DHT22;4992;51.628;6.664;2022-07-29T16:45:38;24.70;99.90
9907;DHT22;4992;51.628;6.664;2022-07-29T16:48:04;24.60;99.90
9907;DHT22;4992;51.628;6.664;2022-07-29T16:50:30;24.60;99.90
9907;DHT22;4992;51.628;6.664;2022-07-29T16:52:56;24.50;99.90
9907;DHT22;4992;51.628;6.664;2022-07-29T16:55:22;24.40;99.90
9907;DHT22;4992;51.628;6.664;2022-07-29T16:57:49;24.40;99.90